sensor_id;sensor_type;location;lat;lon;timestamp;pressure;altitude;pressure_sealevel;temperature;humidity
71917;BME280;59793;46.506;6.674;2023-01-24T00:02:21;97971.25;;;0.35;63.20
71917;BME280;59793;46.506;6.674;2023-01-24T00:04:46;97956.19;;;0.27;63.09
71917;BME280;59793;46.506;6.674;2023-01-24T00:07:12;97962.91;;;0.23;62.99
71917;BME280;59793;46.506;6.674;2023-01-24T00:09:38;97964.50;;;0.29;62.62
71917;BME280;59793;46.506;6.674;2023-01-24T00:12:03;97989.22;;;0.47;62.04
71917;BME280;59793;46.506;6.674;2023-01-24T00:14:29;97979.34;;;0.44;60.74
71917;BME280;59793;46.506;6.674;2023-01-24T00:16:54;97972.72;;;0.16;61.01
71917;BME280;59793;46.506;6.674;2023-01-24T00:19:19;98007.53;;;0.35;61.38
71917;BME280;59793;46.506;6.674;2023-01-24T00:21:45;98012.16;;;0.28;61.91
71917;BME280;59793;46.506;6.674;2023-01-24T00:24:10;97988.72;;;0.08;61.92
71917;BME280;59793;46.506;6.674;2023-01-24T00:26:35;98010.31;;;0.23;61.62
71917;BME280;59793;46.506;6.674;2023-01-24T00:29:01;98007.50;;;0.25;61.34
71917;BME280;59793;46.506;6.674;2023-01-24T00:31:26;98031.41;;;0.32;61.13
71917;BME280;59793;46.506;6.674;2023-01-24T00:33:52;98026.09;;;0.17;61.35
71917;BME280;59793;46.506;6.674;2023-01-24T00:36:17;98034.47;;;0.29;60.43
71917;BME280;59793;46.506;6.674;2023-01-24T00:38:43;98006.59;;;0.04;60.48
71917;BME280;59793;46.506;6.674;2023-01-24T00:41:08;97994.00;;;-0.14;60.86
71917;BME280;59793;46.506;6.674;2023-01-24T00:43:34;98021.34;;;0.04;60.81
71917;BME280;59793;46.506;6.674;2023-01-24T00:45:59;98004.06;;;-0.18;61.01
71917;BME280;59793;46.506;6.674;2023-01-24T00:48:25;98017.00;;;-0.18;61.54
71917;BME280;59793;46.506;6.674;2023-01-24T00:50:51;98031.06;;;-0.14;62.16
71917;BME280;59793;46.506;6.674;2023-01-24T00:53:16;98039.91;;;-0.05;62.27
71917;BME280;59793;46.506;6.674;2023-01-24T00:55:44;98031.53;;;-0.17;62.59
71917;BME280;59793;46.506;6.674;2023-01-24T00:58:10;98063.28;;;0.01;62.58
71917;BME280;59793;46.506;6.674;2023-01-24T01:00:36;98040.94;;;-0.06;62.47
71917;BME280;59793;46.506;6.674;2023-01-24T01:03:05;98054.47;;;0.02;62.58
71917;BME280;59793;46.506;6.674;2023-01-24T01:05:30;98006.81;;;-0.30;62.68
71917;BME280;59793;46.506;6.674;2023-01-24T01:07:56;98019.13;;;-0.15;62.48
71917;BME280;59793;46.506;6.674;2023-01-24T01:10:21;98026.94;;;-0.10;62.57
71917;BME280;59793;46.506;6.674;2023-01-24T01:12:47;98046.44;;;0.03;61.53
71917;BME280;59793;46.506;6.674;2023-01-24T01:15:12;98042.78;;;-0.01;61.52
71917;BME280;59793;46.506;6.674;2023-01-24T01:17:38;98079.91;;;0.10;61.32
71917;BME280;59793;46.506;6.674;2023-01-24T01:20:04;98069.25;;;0.01;60.52
71917;BME280;59793;46.506;6.674;2023-01-24T01:22:29;98061.00;;;-0.23;60.87
71917;BME280;59793;46.506;6.674;2023-01-24T01:24:54;98048.53;;;-0.26;60.83
71917;BME280;59793;46.506;6.674;2023-01-24T01:27:20;98062.75;;;-0.29;61.36
71917;BME280;59793;46.506;6.674;2023-01-24T01:29:45;98082.84;;;-0.14;61.27
71917;BME280;59793;46.506;6.674;2023-01-24T01:32:11;98087.19;;;-0.19;62.45
71917;BME280;59793;46.506;6.674;2023-01-24T01:34:36;98037.50;;;-0.43;62.00
71917;BME280;59793;46.506;6.674;2023-01-24T01:37:01;98081.75;;;-0.18;62.16
71917;BME280;59793;46.506;6.674;2023-01-24T01:39:27;98096.13;;;-0.05;62.73
71917;BME280;59793;46.506;6.674;2023-01-24T01:41:52;98075.16;;;-0.04;62.93
71917;BME280;59793;46.506;6.674;2023-01-24T01:44:27;98088.28;;;0.17;62.28
71917;BME280;59793;46.506;6.674;2023-01-24T01:47:34;98091.91;;;0.16;61.76
71917;BME280;59793;46.506;6.674;2023-01-24T01:50:05;98092.69;;;0.16;61.58
71917;BME280;59793;46.506;6.674;2023-01-24T01:52:38;98092.47;;;0.23;61.43
71917;BME280;59793;46.506;6.674;2023-01-24T01:55:13;98095.84;;;0.23;61.45
71917;BME280;59793;46.506;6.674;2023-01-24T01:57:39;98088.84;;;0.24;61.35
71917;BME280;59793;46.506;6.674;2023-01-24T02:00:16;98064.09;;;0.06;61.23
71917;BME280;59793;46.506;6.674;2023-01-24T02:02:46;98086.88;;;0.04;61.42
71917;BME280;59793;46.506;6.674;2023-01-24T02:05:14;98071.84;;;0.01;61.29
71917;BME280;59793;46.506;6.674;2023-01-24T02:07:49;98045.94;;;-0.26;61.29
71917;BME280;59793;46.506;6.674;2023-01-24T02:10:17;98106.38;;;0.12;61.39
71917;BME280;59793;46.506;6.674;2023-01-24T02:12:46;98101.41;;;0.05;61.12
71917;BME280;59793;46.506;6.674;2023-01-24T02:15:17;98076.78;;;-0.25;62.15
71917;BME280;59793;46.506;6.674;2023-01-24T02:18:01;98109.81;;;-0.10;62.08
71917;BME280;59793;46.506;6.674;2023-01-24T02:28:08;98101.50;;;-0.12;62.50
71917;BME280;59793;46.506;6.674;2023-01-24T02:30:35;98096.38;;;-0.07;62.04
71917;BME280;59793;46.506;6.674;2023-01-24T02:33:19;98091.69;;;-0.10;62.01
71917;BME280;59793;46.506;6.674;2023-01-24T02:35:46;98105.16;;;-0.08;62.22
71917;BME280;59793;46.506;6.674;2023-01-24T02:38:23;98110.03;;;-0.11;62.68
71917;BME280;59793;46.506;6.674;2023-01-24T02:40:53;98086.44;;;-0.15;62.40
71917;BME280;59793;46.506;6.674;2023-01-24T02:43:22;98108.81;;;-0.04;62.58
71917;BME280;59793;46.506;6.674;2023-01-24T02:45:50;98114.50;;;-0.07;62.86
71917;BME280;59793;46.506;6.674;2023-01-24T02:48:16;98096.81;;;-0.15;63.07
71917;BME280;59793;46.506;6.674;2023-01-24T02:50:41;98091.50;;;-0.30;64.10
71917;BME280;59793;46.506;6.674;2023-01-24T02:53:25;98117.28;;;-0.13;64.25
71917;BME280;59793;46.506;6.674;2023-01-24T02:55:58;98106.94;;;-0.13;64.27
71917;BME280;59793;46.506;6.674;2023-01-24T02:58:42;98118.50;;;-0.21;63.75
71917;BME280;59793;46.506;6.674;2023-01-24T03:01:07;98101.94;;;-0.20;63.49
71917;BME280;59793;46.506;6.674;2023-01-24T03:03:33;98102.28;;;-0.11;62.90
71917;BME280;59793;46.506;6.674;2023-01-24T03:05:58;98093.59;;;-0.27;62.86
71917;BME280;59793;46.506;6.674;2023-01-24T03:08:25;98114.00;;;-0.04;62.44
71917;BME280;59793;46.506;6.674;2023-01-24T03:10:51;98103.75;;;-0.20;62.73
71917;BME280;59793;46.506;6.674;2023-01-24T03:13:17;98095.81;;;-0.36;63.29
71917;BME280;59793;46.506;6.674;2023-01-24T03:16:02;98104.19;;;-0.29;63.57
71917;BME280;59793;46.506;6.674;2023-01-24T03:18:47;98108.28;;;-0.33;64.03
71917;BME280;59793;46.506;6.674;2023-01-24T03:21:30;98117.34;;;-0.35;64.79
71917;BME280;59793;46.506;6.674;2023-01-24T03:24:14;98113.81;;;-0.24;64.72
71917;BME280;59793;46.506;6.674;2023-01-24T03:26:58;98127.34;;;-0.17;64.53
71917;BME280;59793;46.506;6.674;2023-01-24T03:29:42;98121.69;;;-0.14;64.46
71917;BME280;59793;46.506;6.674;2023-01-24T03:32:26;98123.78;;;-0.11;64.76
71917;BME280;59793;46.506;6.674;2023-01-24T03:35:10;98093.78;;;-0.34;64.37
71917;BME280;59793;46.506;6.674;2023-01-24T03:37:35;98128.53;;;-0.03;64.16
71917;BME280;59793;46.506;6.674;2023-01-24T03:40:20;98117.97;;;0.04;63.61
71917;BME280;59793;46.506;6.674;2023-01-24T03:42:46;98123.88;;;-0.01;63.88
71917;BME280;59793;46.506;6.674;2023-01-24T03:45:15;98122.22;;;-0.12;64.22
71917;BME280;59793;46.506;6.674;2023-01-24T03:47:44;98117.19;;;-0.23;64.83
71917;BME280;59793;46.506;6.674;2023-01-24T03:50:11;98134.06;;;-0.21;64.78
71917;BME280;59793;46.506;6.674;2023-01-24T03:52:55;98122.06;;;-0.27;64.98
71917;BME280;59793;46.506;6.674;2023-01-24T03:55:20;98104.94;;;-0.55;66.06
71917;BME280;59793;46.506;6.674;2023-01-24T03:57:46;98113.44;;;-0.60;65.72
71917;BME280;59793;46.506;6.674;2023-01-24T04:00:13;98142.00;;;-0.50;66.46
71917;BME280;59793;46.506;6.674;2023-01-24T04:02:38;98122.69;;;-0.64;66.38
71917;BME280;59793;46.506;6.674;2023-01-24T04:05:04;98138.34;;;-0.76;67.25
71917;BME280;59793;46.506;6.674;2023-01-24T04:07:38;98139.13;;;-0.75;67.71
71917;BME280;59793;46.506;6.674;2023-01-24T04:10:03;98103.75;;;-0.91;67.23
71917;BME280;59793;46.506;6.674;2023-01-24T04:12:29;98114.28;;;-0.76;67.19
71917;BME280;59793;46.506;6.674;2023-01-24T04:14:54;98139.19;;;-0.70;67.62
71917;BME280;59793;46.506;6.674;2023-01-24T04:17:20;98119.31;;;-0.86;67.76
71917;BME280;59793;46.506;6.674;2023-01-24T04:19:46;98113.53;;;-0.93;67.93
71917;BME280;59793;46.506;6.674;2023-01-24T04:22:11;98141.03;;;-0.87;68.62
71917;BME280;59793;46.506;6.674;2023-01-24T04:24:37;98144.63;;;-0.88;68.77
71917;BME280;59793;46.506;6.674;2023-01-24T04:27:02;98130.28;;;-0.79;68.34
71917;BME280;59793;46.506;6.674;2023-01-24T04:29:28;98126.78;;;-0.68;67.93
71917;BME280;59793;46.506;6.674;2023-01-24T04:31:53;98143.69;;;-0.60;67.83
71917;BME280;59793;46.506;6.674;2023-01-24T04:34:18;98138.91;;;-0.74;68.54
71917;BME280;59793;46.506;6.674;2023-01-24T04:36:44;98145.88;;;-0.74;68.56
71917;BME280;59793;46.506;6.674;2023-01-24T04:39:09;98115.19;;;-0.87;68.60
71917;BME280;59793;46.506;6.674;2023-01-24T04:41:35;98152.06;;;-0.75;69.13
71917;BME280;59793;46.506;6.674;2023-01-24T04:44:00;98140.88;;;-0.59;68.47
71917;BME280;59793;46.506;6.674;2023-01-24T04:46:27;98148.16;;;-0.56;68.45
71917;BME280;59793;46.506;6.674;2023-01-24T04:48:53;98135.16;;;-0.61;68.51
71917;BME280;59793;46.506;6.674;2023-01-24T04:51:18;98162.81;;;-0.39;68.24
71917;BME280;59793;46.506;6.674;2023-01-24T04:53:43;98126.97;;;-0.53;68.19
71917;BME280;59793;46.506;6.674;2023-01-24T04:56:09;98086.03;;;-1.00;68.55
71917;BME280;59793;46.506;6.674;2023-01-24T04:58:36;98158.63;;;-0.45;68.50
71917;BME280;59793;46.506;6.674;2023-01-24T05:01:01;98163.94;;;-0.35;68.30
71917;BME280;59793;46.506;6.674;2023-01-24T05:03:27;98161.28;;;-0.40;68.35
71917;BME280;59793;46.506;6.674;2023-01-24T05:05:53;98156.41;;;-0.37;68.47
71917;BME280;59793;46.506;6.674;2023-01-24T05:08:19;98154.59;;;-0.36;68.14
71917;BME280;59793;46.506;6.674;2023-01-24T05:10:45;98168.59;;;-0.32;67.72
71917;BME280;59793;46.506;6.674;2023-01-24T05:13:10;98164.16;;;-0.37;68.44
71917;BME280;59793;46.506;6.674;2023-01-24T05:15:36;98165.97;;;-0.37;68.68
71917;BME280;59793;46.506;6.674;2023-01-24T05:18:03;98161.81;;;-0.38;68.04
71917;BME280;59793;46.506;6.674;2023-01-24T05:20:28;98171.81;;;-0.47;68.67
71917;BME280;59793;46.506;6.674;2023-01-24T05:22:57;98178.66;;;-0.36;68.21
71917;BME280;59793;46.506;6.674;2023-01-24T05:25:23;98167.03;;;-0.33;68.16
71917;BME280;59793;46.506;6.674;2023-01-24T05:27:50;98167.34;;;-0.30;67.80
71917;BME280;59793;46.506;6.674;2023-01-24T05:30:15;98174.38;;;-0.25;67.41
71917;BME280;59793;46.506;6.674;2023-01-24T05:32:41;98172.63;;;-0.19;66.67
71917;BME280;59793;46.506;6.674;2023-01-24T05:35:07;98156.16;;;-0.35;66.79
71917;BME280;59793;46.506;6.674;2023-01-24T05:37:33;98171.88;;;-0.42;68.05
71917;BME280;59793;46.506;6.674;2023-01-24T05:40:00;98164.38;;;-0.60;68.30
71917;BME280;59793;46.506;6.674;2023-01-24T05:42:26;98177.03;;;-0.64;68.31
71917;BME280;59793;46.506;6.674;2023-01-24T05:44:51;98141.81;;;-0.87;68.53
71917;BME280;59793;46.506;6.674;2023-01-24T05:47:17;98193.72;;;-0.55;68.66
71917;BME280;59793;46.506;6.674;2023-01-24T05:49:42;98194.63;;;-0.44;68.37
71917;BME280;59793;46.506;6.674;2023-01-24T05:52:07;98182.22;;;-0.42;67.80
71917;BME280;59793;46.506;6.674;2023-01-24T05:54:33;98182.72;;;-0.45;67.59
71917;BME280;59793;46.506;6.674;2023-01-24T05:56:58;98188.19;;;-0.41;67.81
71917;BME280;59793;46.506;6.674;2023-01-24T05:59:24;98203.41;;;-0.45;67.91
71917;BME280;59793;46.506;6.674;2023-01-24T06:01:49;98197.38;;;-0.51;67.94
71917;BME280;59793;46.506;6.674;2023-01-24T06:04:14;98186.25;;;-0.51;68.22
71917;BME280;59793;46.506;6.674;2023-01-24T06:06:40;98205.34;;;-0.35;68.52
71917;BME280;59793;46.506;6.674;2023-01-24T06:09:05;98150.75;;;-0.56;68.00
71917;BME280;59793;46.506;6.674;2023-01-24T06:11:31;98188.72;;;-0.39;68.03
71917;BME280;59793;46.506;6.674;2023-01-24T06:13:58;98219.38;;;-0.31;68.62
71917;BME280;59793;46.506;6.674;2023-01-24T06:16:25;98207.03;;;-0.24;68.14
71917;BME280;59793;46.506;6.674;2023-01-24T06:18:52;98226.78;;;-0.18;68.43
71917;BME280;59793;46.506;6.674;2023-01-24T06:23:58;98209.06;;;-0.26;67.74
71917;BME280;59793;46.506;6.674;2023-01-24T06:26:23;98187.84;;;-0.28;67.79
71917;BME280;59793;46.506;6.674;2023-01-24T06:28:49;98221.22;;;-0.05;68.19
71917;BME280;59793;46.506;6.674;2023-01-24T06:31:50;98231.16;;;-0.18;69.00
71917;BME280;59793;46.506;6.674;2023-01-24T06:39:50;98239.25;;;-0.15;69.05
71917;BME280;59793;46.506;6.674;2023-01-24T06:42:21;98243.88;;;-0.17;68.89
71917;BME280;59793;46.506;6.674;2023-01-24T06:44:56;98244.78;;;-0.28;69.32
71917;BME280;59793;46.506;6.674;2023-01-24T06:47:21;98244.59;;;-0.21;70.19
71917;BME280;59793;46.506;6.674;2023-01-24T06:49:48;98225.50;;;-0.37;70.13
71917;BME280;59793;46.506;6.674;2023-01-24T06:52:14;98248.34;;;-0.12;69.53
71917;BME280;59793;46.506;6.674;2023-01-24T06:54:39;98245.13;;;0.03;68.90
71917;BME280;59793;46.506;6.674;2023-01-24T06:57:05;98252.88;;;-0.03;69.17
71917;BME280;59793;46.506;6.674;2023-01-24T06:59:33;98259.03;;;-0.04;69.23
71917;BME280;59793;46.506;6.674;2023-01-24T07:01:58;98244.25;;;-0.08;69.14
71917;BME280;59793;46.506;6.674;2023-01-24T07:04:24;98240.38;;;-0.06;69.30
71917;BME280;59793;46.506;6.674;2023-01-24T07:06:49;98262.97;;;-0.01;69.14
71917;BME280;59793;46.506;6.674;2023-01-24T07:09:18;98276.47;;;0.01;69.32
71917;BME280;59793;46.506;6.674;2023-01-24T07:11:43;98259.91;;;-0.20;69.86
71917;BME280;59793;46.506;6.674;2023-01-24T07:14:09;98245.31;;;-0.26;69.75
71917;BME280;59793;46.506;6.674;2023-01-24T07:16:34;98255.81;;;-0.16;69.82
71917;BME280;59793;46.506;6.674;2023-01-24T07:19:00;98290.06;;;0.13;69.60
71917;BME280;59793;46.506;6.674;2023-01-24T07:21:25;98262.31;;;0.09;68.88
71917;BME280;59793;46.506;6.674;2023-01-24T07:23:55;98284.81;;;0.30;68.34
71917;BME280;59793;46.506;6.674;2023-01-24T07:26:21;98298.97;;;0.44;68.21
71917;BME280;59793;46.506;6.674;2023-01-24T07:28:47;98300.94;;;0.59;67.83
71917;BME280;59793;46.506;6.674;2023-01-24T07:31:14;98304.31;;;0.60;68.03
71917;BME280;59793;46.506;6.674;2023-01-24T07:33:39;98316.38;;;0.71;67.89
71917;BME280;59793;46.506;6.674;2023-01-24T07:36:15;98290.50;;;0.81;67.10
71917;BME280;59793;46.506;6.674;2023-01-24T07:38:41;98293.72;;;1.26;65.12
71917;BME280;59793;46.506;6.674;2023-01-24T07:41:07;98291.81;;;1.53;64.59
71917;BME280;59793;46.506;6.674;2023-01-24T07:43:33;98308.53;;;1.73;64.20
71917;BME280;59793;46.506;6.674;2023-01-24T07:45:58;98307.88;;;2.81;61.70
71917;BME280;59793;46.506;6.674;2023-01-24T07:48:24;98305.94;;;3.89;57.82
71917;BME280;59793;46.506;6.674;2023-01-24T07:50:49;98319.50;;;5.00;53.85
71917;BME280;59793;46.506;6.674;2023-01-24T07:53:14;98319.97;;;5.65;51.01
71917;BME280;59793;46.506;6.674;2023-01-24T07:55:40;98311.50;;;6.03;49.26
71917;BME280;59793;46.506;6.674;2023-01-24T07:58:05;98345.09;;;6.38;48.18
71917;BME280;59793;46.506;6.674;2023-01-24T08:00:30;98332.81;;;6.77;48.27
71917;BME280;59793;46.506;6.674;2023-01-24T08:02:56;98320.75;;;7.13;46.63
71917;BME280;59793;46.506;6.674;2023-01-24T08:05:21;98325.16;;;7.18;46.81
71917;BME280;59793;46.506;6.674;2023-01-24T08:07:47;98335.97;;;6.36;47.34
71917;BME280;59793;46.506;6.674;2023-01-24T08:10:12;98342.69;;;6.23;48.66
71917;BME280;59793;46.506;6.674;2023-01-24T08:12:38;98325.50;;;5.88;49.78
71917;BME280;59793;46.506;6.674;2023-01-24T08:15:03;98310.53;;;5.40;50.69
71917;BME280;59793;46.506;6.674;2023-01-24T08:17:29;98341.44;;;5.33;51.50
71917;BME280;59793;46.506;6.674;2023-01-24T08:19:55;98346.84;;;5.13;51.81
71917;BME280;59793;46.506;6.674;2023-01-24T08:22:20;98343.16;;;4.74;52.41
71917;BME280;59793;46.506;6.674;2023-01-24T08:24:45;98343.22;;;4.64;53.63
71917;BME280;59793;46.506;6.674;2023-01-24T08:27:11;98351.56;;;4.61;54.34
71917;BME280;59793;46.506;6.674;2023-01-24T08:29:36;98342.69;;;4.67;54.00
71917;BME280;59793;46.506;6.674;2023-01-24T08:32:01;98328.91;;;4.51;52.57
71917;BME280;59793;46.506;6.674;2023-01-24T08:34:27;98361.53;;;4.54;53.51
71917;BME280;59793;46.506;6.674;2023-01-24T08:36:52;98371.75;;;4.40;54.14
71917;BME280;59793;46.506;6.674;2023-01-24T08:39:18;98363.69;;;4.42;54.46
71917;BME280;59793;46.506;6.674;2023-01-24T08:41:43;98384.16;;;4.74;54.17
71917;BME280;59793;46.506;6.674;2023-01-24T08:44:11;98389.09;;;4.75;54.17
71917;BME280;59793;46.506;6.674;2023-01-24T08:46:36;98350.75;;;4.71;54.58
71917;BME280;59793;46.506;6.674;2023-01-24T08:49:02;98377.00;;;4.35;55.53
71917;BME280;59793;46.506;6.674;2023-01-24T08:51:28;98379.28;;;4.52;55.03
71917;BME280;59793;46.506;6.674;2023-01-24T08:53:53;98384.09;;;4.79;54.52
71917;BME280;59793;46.506;6.674;2023-01-24T08:56:18;98386.19;;;4.82;53.66
71917;BME280;59793;46.506;6.674;2023-01-24T08:58:44;98382.09;;;4.66;53.69
71917;BME280;59793;46.506;6.674;2023-01-24T09:01:10;98381.91;;;4.47;54.16
71917;BME280;59793;46.506;6.674;2023-01-24T09:03:36;98382.47;;;4.39;53.98
71917;BME280;59793;46.506;6.674;2023-01-24T09:06:02;98391.81;;;4.50;54.38
71917;BME280;59793;46.506;6.674;2023-01-24T09:08:28;98368.84;;;4.52;53.89
71917;BME280;59793;46.506;6.674;2023-01-24T09:10:57;98339.63;;;4.50;53.24
71917;BME280;59793;46.506;6.674;2023-01-24T09:13:22;98381.78;;;4.77;53.46
71917;BME280;59793;46.506;6.674;2023-01-24T09:15:48;98384.06;;;4.89;52.02
71917;BME280;59793;46.506;6.674;2023-01-24T09:18:16;98395.47;;;5.03;51.82
71917;BME280;59793;46.506;6.674;2023-01-24T09:20:42;98359.84;;;4.78;52.93
71917;BME280;59793;46.506;6.674;2023-01-24T09:23:09;98369.66;;;4.97;52.49
71917;BME280;59793;46.506;6.674;2023-01-24T09:25:36;98395.56;;;5.27;52.01
71917;BME280;59793;46.506;6.674;2023-01-24T09:28:02;98372.53;;;5.35;50.96
71917;BME280;59793;46.506;6.674;2023-01-24T09:30:27;98387.16;;;5.36;51.31
71917;BME280;59793;46.506;6.674;2023-01-24T09:32:53;98400.31;;;5.55;50.42
71917;BME280;59793;46.506;6.674;2023-01-24T09:35:18;98399.63;;;5.44;51.49
71917;BME280;59793;46.506;6.674;2023-01-24T09:37:43;98388.00;;;5.60;50.78
71917;BME280;59793;46.506;6.674;2023-01-24T09:40:22;98408.50;;;5.77;50.75
71917;BME280;59793;46.506;6.674;2023-01-24T09:42:56;98397.47;;;5.51;51.21
71917;BME280;59793;46.506;6.674;2023-01-24T09:45:36;98400.06;;;5.56;52.10
71917;BME280;59793;46.506;6.674;2023-01-24T09:48:11;98395.06;;;5.94;50.81
71917;BME280;59793;46.506;6.674;2023-01-24T09:50:48;98391.44;;;6.14;49.55
71917;BME280;59793;46.506;6.674;2023-01-24T09:53:19;98401.03;;;6.23;49.35
71917;BME280;59793;46.506;6.674;2023-01-24T09:55:46;98394.91;;;6.09;49.62
71917;BME280;59793;46.506;6.674;2023-01-24T09:58:29;98400.91;;;6.10;50.17
71917;BME280;59793;46.506;6.674;2023-01-24T10:01:05;98415.91;;;5.99;50.32
71917;BME280;59793;46.506;6.674;2023-01-24T10:03:34;98415.63;;;6.01;50.32
71917;BME280;59793;46.506;6.674;2023-01-24T10:06:07;98415.97;;;5.60;51.99
71917;BME280;59793;46.506;6.674;2023-01-24T10:08:40;98416.09;;;6.08;50.72
71917;BME280;59793;46.506;6.674;2023-01-24T10:11:16;98421.28;;;6.13;50.87
71917;BME280;59793;46.506;6.674;2023-01-24T10:24:29;98409.19;;;6.65;48.16
71917;BME280;59793;46.506;6.674;2023-01-24T10:26:59;98381.16;;;6.65;48.72
71917;BME280;59793;46.506;6.674;2023-01-24T10:29:38;98405.03;;;7.21;47.05
71917;BME280;59793;46.506;6.674;2023-01-24T10:32:14;98394.53;;;7.39;46.38
71917;BME280;59793;46.506;6.674;2023-01-24T10:34:46;98396.75;;;7.13;46.78
71917;BME280;59793;46.506;6.674;2023-01-24T10:37:23;98401.56;;;6.87;47.64
71917;BME280;59793;46.506;6.674;2023-01-24T10:39:49;98403.75;;;6.80;47.78
71917;BME280;59793;46.506;6.674;2023-01-24T10:42:22;98390.75;;;6.51;48.56
71917;BME280;59793;46.506;6.674;2023-01-24T10:44:48;98381.88;;;6.90;48.08
71917;BME280;59793;46.506;6.674;2023-01-24T10:47:48;98394.06;;;7.18;47.17
71917;BME280;59793;46.506;6.674;2023-01-24T10:50:17;98394.16;;;7.79;46.62
71917;BME280;59793;46.506;6.674;2023-01-24T10:52:43;98397.56;;;7.79;45.98
71917;BME280;59793;46.506;6.674;2023-01-24T10:57:51;98385.91;;;7.20;45.68
71917;BME280;59793;46.506;6.674;2023-01-24T11:00:30;98398.63;;;6.70;47.21
71917;BME280;59793;46.506;6.674;2023-01-24T11:03:00;98369.34;;;6.01;48.67
71917;BME280;59793;46.506;6.674;2023-01-24T11:05:39;98390.59;;;5.94;50.46
71917;BME280;59793;46.506;6.674;2023-01-24T11:08:17;98383.28;;;6.63;48.18
71917;BME280;59793;46.506;6.674;2023-01-24T11:10:43;98384.31;;;7.38;46.30
71917;BME280;59793;46.506;6.674;2023-01-24T11:13:39;98367.53;;;7.85;46.65
71917;BME280;59793;46.506;6.674;2023-01-24T11:16:30;98376.88;;;8.05;44.60
71917;BME280;59793;46.506;6.674;2023-01-24T11:19:00;98373.69;;;8.50;43.98
71917;BME280;59793;46.506;6.674;2023-01-24T11:21:28;98373.69;;;8.64;43.13
71917;BME280;59793;46.506;6.674;2023-01-24T11:26:32;98378.19;;;7.29;45.54
71917;BME280;59793;46.506;6.674;2023-01-24T11:29:04;98376.16;;;6.45;48.10
71917;BME280;59793;46.506;6.674;2023-01-24T11:31:39;98354.47;;;5.96;49.65
71917;BME280;59793;46.506;6.674;2023-01-24T11:37:05;98366.16;;;6.90;48.03
71917;BME280;59793;46.506;6.674;2023-01-24T11:39:41;98382.44;;;6.87;48.91
71917;BME280;59793;46.506;6.674;2023-01-24T11:42:13;98374.72;;;6.58;47.82
71917;BME280;59793;46.506;6.674;2023-01-24T11:44:48;98365.34;;;6.33;48.24
71917;BME280;59793;46.506;6.674;2023-01-24T11:47:22;98372.03;;;6.63;49.25
71917;BME280;59793;46.506;6.674;2023-01-24T12:01:11;98384.59;;;6.42;50.56
71917;BME280;59793;46.506;6.674;2023-01-24T12:09:20;98377.13;;;6.73;48.68
71917;BME280;59793;46.506;6.674;2023-01-24T12:15:00;98366.00;;;6.62;49.96
71917;BME280;59793;46.506;6.674;2023-01-24T12:22:48;98351.19;;;6.53;50.39
71917;BME280;59793;46.506;6.674;2023-01-24T12:25:35;98382.59;;;6.77;50.07
71917;BME280;59793;46.506;6.674;2023-01-24T12:28:04;98387.94;;;6.66;49.48
71917;BME280;59793;46.506;6.674;2023-01-24T12:30:51;98373.75;;;6.30;49.90
71917;BME280;59793;46.506;6.674;2023-01-24T12:33:32;98345.44;;;5.84;50.63
71917;BME280;59793;46.506;6.674;2023-01-24T12:36:11;98379.94;;;6.15;50.00
71917;BME280;59793;46.506;6.674;2023-01-24T12:38:46;98372.31;;;6.18;50.53
71917;BME280;59793;46.506;6.674;2023-01-24T12:41:23;98362.31;;;5.96;50.90
71917;BME280;59793;46.506;6.674;2023-01-24T12:46:58;98366.59;;;6.35;50.42
71917;BME280;59793;46.506;6.674;2023-01-24T12:49:33;98370.75;;;6.98;49.38
71917;BME280;59793;46.506;6.674;2023-01-24T12:55:23;98372.44;;;6.51;50.04
71917;BME280;59793;46.506;6.674;2023-01-24T13:01:38;98370.16;;;6.44;51.74
71917;BME280;59793;46.506;6.674;2023-01-24T13:04:19;98374.50;;;6.54;51.01
71917;BME280;59793;46.506;6.674;2023-01-24T13:07:23;98374.63;;;6.44;50.48
71917;BME280;59793;46.506;6.674;2023-01-24T13:10:02;98377.16;;;6.49;51.17
71917;BME280;59793;46.506;6.674;2023-01-24T13:12:31;98381.94;;;6.85;49.49
71917;BME280;59793;46.506;6.674;2023-01-24T13:15:18;98361.13;;;7.12;49.18
71917;BME280;59793;46.506;6.674;2023-01-24T13:18:11;98367.19;;;7.59;48.05
71917;BME280;59793;46.506;6.674;2023-01-24T13:23:29;98377.13;;;9.76;42.58
71917;BME280;59793;46.506;6.674;2023-01-24T13:34:19;98374.50;;;8.86;43.83
71917;BME280;59793;46.506;6.674;2023-01-24T13:36:47;98369.75;;;8.75;43.99
71917;BME280;59793;46.506;6.674;2023-01-24T13:39:43;98378.03;;;9.41;42.09
71917;BME280;59793;46.506;6.674;2023-01-24T13:42:36;98380.22;;;10.10;41.51
71917;BME280;59793;46.506;6.674;2023-01-24T13:48:00;98374.34;;;9.73;41.22
71917;BME280;59793;46.506;6.674;2023-01-24T13:50:30;98377.03;;;8.92;42.40
71917;BME280;59793;46.506;6.674;2023-01-24T13:52:58;98368.72;;;8.21;44.27
71917;BME280;59793;46.506;6.674;2023-01-24T14:00:55;98401.91;;;7.18;47.90
71917;BME280;59793;46.506;6.674;2023-01-24T14:03:38;98388.03;;;6.80;48.68
71917;BME280;59793;46.506;6.674;2023-01-24T14:06:06;98403.41;;;6.68;49.36
71917;BME280;59793;46.506;6.674;2023-01-24T14:08:36;98406.25;;;6.47;49.45
71917;BME280;59793;46.506;6.674;2023-01-24T14:27:38;98400.38;;;5.10;54.15
71917;BME280;59793;46.506;6.674;2023-01-24T14:30:35;98403.09;;;5.34;53.81
71917;BME280;59793;46.506;6.674;2023-01-24T14:36:10;98413.94;;;5.17;55.24
71917;BME280;59793;46.506;6.674;2023-01-24T14:38:37;98399.97;;;4.93;55.77
71917;BME280;59793;46.506;6.674;2023-01-24T14:41:03;98409.44;;;4.73;57.04
71917;BME280;59793;46.506;6.674;2023-01-24T14:43:34;98419.72;;;4.60;57.59
71917;BME280;59793;46.506;6.674;2023-01-24T14:46:22;98423.13;;;4.50;58.33
71917;BME280;59793;46.506;6.674;2023-01-24T14:48:49;98423.16;;;4.40;58.68
71917;BME280;59793;46.506;6.674;2023-01-24T14:51:17;98432.81;;;4.44;58.75
71917;BME280;59793;46.506;6.674;2023-01-24T14:53:48;98433.53;;;4.55;58.33
71917;BME280;59793;46.506;6.674;2023-01-24T14:56:14;98430.00;;;4.25;59.32
71917;BME280;59793;46.506;6.674;2023-01-24T14:58:40;98409.69;;;4.17;59.22
71917;BME280;59793;46.506;6.674;2023-01-24T15:01:27;98417.94;;;4.35;58.70
71917;BME280;59793;46.506;6.674;2023-01-24T15:03:53;98432.53;;;4.51;58.68
71917;BME280;59793;46.506;6.674;2023-01-24T15:06:23;98429.91;;;4.56;58.21
71917;BME280;59793;46.506;6.674;2023-01-24T15:08:57;98429.38;;;4.54;58.22
71917;BME280;59793;46.506;6.674;2023-01-24T15:11:28;98436.94;;;4.61;57.77